createdAt,value
2017-06-28T00:00:10.949Z,23.40
2017-06-28T00:02:42.725Z,23.40
2017-06-28T00:05:14.520Z,23.30
2017-06-28T00:07:46.312Z,23.30
2017-06-28T00:10:22.296Z,23.30
2017-06-28T00:12:53.796Z,23.20
2017-06-28T00:15:29.417Z,23.20
2017-06-28T00:18:05.719Z,23.20
2017-06-28T00:20:37.448Z,23.20
2017-06-28T00:23:08.858Z,23.10
2017-06-28T00:25:40.362Z,23.20
2017-06-28T00:28:12.272Z,23.10
2017-06-28T00:30:48.217Z,23.20
2017-06-28T00:33:19.497Z,23.20
2017-06-28T00:35:51.349Z,23.20
2017-06-28T00:38:22.787Z,23.10
2017-06-28T00:40:53.973Z,23.10
2017-06-28T00:43:25.514Z,23.10
2017-06-28T00:45:57.362Z,23.10
2017-06-28T00:48:29.093Z,23.10
2017-06-28T00:51:01.133Z,23.00
2017-06-28T00:53:32.732Z,23.00
2017-06-28T00:56:04.068Z,23.00
2017-06-28T00:58:35.662Z,23.00
2017-06-28T01:01:06.869Z,23.00
2017-06-28T01:03:38.201Z,23.00
2017-06-28T01:06:13.765Z,23.10
2017-06-28T01:08:45.578Z,23.00
2017-06-28T01:11:17.493Z,23.00
2017-06-28T01:13:48.985Z,23.00
2017-06-28T01:16:20.213Z,23.00
2017-06-28T01:18:51.911Z,23.00
2017-06-28T01:21:28.089Z,22.90
2017-06-28T01:23:59.412Z,22.80
2017-06-28T01:26:31.225Z,22.70
2017-06-28T01:29:06.649Z,22.70
2017-06-28T01:31:42.916Z,22.60
2017-06-28T01:34:14.525Z,22.40
2017-06-28T01:36:46.097Z,22.20
2017-06-28T01:39:17.969Z,22.10
2017-06-28T01:41:53.317Z,22.10
2017-06-28T01:44:22.695Z,22.10
2017-06-28T01:47:03.768Z,22.00
2017-06-28T01:49:39.075Z,21.90
2017-06-28T01:52:14.162Z,21.90
2017-06-28T01:54:49.195Z,21.90
2017-06-28T01:57:20.457Z,21.90
2017-06-28T01:59:51.791Z,21.90
2017-06-28T02:02:27.746Z,21.90
2017-06-28T02:04:59.020Z,21.90
2017-06-28T02:07:34.162Z,22.00
2017-06-28T02:10:10.384Z,22.00
2017-06-28T02:12:41.400Z,21.90
2017-06-28T02:15:16.920Z,22.00
2017-06-28T02:17:48.516Z,22.00
2017-06-28T02:20:16.625Z,22.00
2017-06-28T02:22:45.540Z,22.10
2017-06-28T02:25:13.640Z,22.00
2017-06-28T02:27:41.728Z,22.00
2017-06-28T02:30:09.879Z,22.00
2017-06-28T02:32:45.416Z,22.00
2017-06-28T02:35:13.524Z,22.00
2017-06-28T02:37:41.637Z,22.00
2017-06-28T02:40:09.882Z,22.00
2017-06-28T02:42:37.972Z,22.00
2017-06-28T02:45:06.088Z,22.10
2017-06-28T02:47:34.994Z,22.20
2017-06-28T02:50:03.123Z,22.20
2017-06-28T02:52:31.271Z,22.30
2017-06-28T02:54:59.425Z,22.30
2017-06-28T02:57:27.673Z,22.30
2017-06-28T02:59:55.789Z,22.30
2017-06-28T03:02:23.910Z,22.20
2017-06-28T03:04:52.060Z,22.20
2017-06-28T03:07:20.192Z,22.10
2017-06-28T03:09:48.340Z,22.10
2017-06-28T03:12:16.453Z,22.00
2017-06-28T03:14:44.697Z,22.00
2017-06-28T03:17:12.814Z,22.00
2017-06-28T03:19:41.684Z,21.90
2017-06-28T03:22:09.818Z,21.90
2017-06-28T03:24:37.913Z,21.90
2017-06-28T03:27:06.025Z,21.90
2017-06-28T03:29:34.285Z,21.90
2017-06-28T03:32:02.378Z,21.80
2017-06-28T03:34:30.487Z,21.90
2017-06-28T03:36:58.613Z,21.90
2017-06-28T03:39:26.721Z,22.10
2017-06-28T03:41:55.593Z,22.10
2017-06-28T03:44:23.737Z,22.00
2017-06-28T03:46:51.857Z,22.00
2017-06-28T03:49:19.977Z,21.90
2017-06-28T03:51:48.283Z,21.90
2017-06-28T03:54:16.430Z,21.90
2017-06-28T03:56:44.570Z,21.80
2017-06-28T03:59:12.726Z,21.90
2017-06-28T04:01:40.879Z,21.80
2017-06-28T04:04:09.019Z,21.70
2017-06-28T04:06:37.921Z,21.70
2017-06-28T04:09:06.809Z,21.70
2017-06-28T04:11:35.816Z,21.70
2017-06-28T04:14:04.697Z,21.80
2017-06-28T04:16:33.596Z,21.80
2017-06-28T04:19:02.488Z,21.80
2017-06-28T04:21:30.581Z,21.80
2017-06-28T04:23:58.725Z,21.70
2017-06-28T04:26:26.868Z,21.70
2017-06-28T04:28:54.961Z,21.40
2017-06-28T04:31:23.193Z,21.50
2017-06-28T04:33:51.301Z,21.50
2017-06-28T04:36:19.428Z,21.50
2017-06-28T04:38:47.553Z,21.50
2017-06-28T04:41:15.838Z,21.50
2017-06-28T04:43:43.950Z,21.40
2017-06-28T04:46:12.060Z,21.40
2017-06-28T04:48:40.192Z,21.30
2017-06-28T04:51:08.328Z,21.10
2017-06-28T04:53:36.447Z,21.10
2017-06-28T04:56:04.593Z,21.10
2017-06-28T04:58:32.757Z,20.90
2017-06-28T05:01:00.861Z,21.00
2017-06-28T05:03:28.980Z,21.00
2017-06-28T05:05:57.142Z,21.00
2017-06-28T05:08:25.260Z,20.90
2017-06-28T05:10:54.186Z,20.90
2017-06-28T05:13:22.313Z,20.90
2017-06-28T05:15:50.441Z,20.90
2017-06-28T05:18:18.718Z,20.90
2017-06-28T05:20:46.836Z,20.90
2017-06-28T05:23:14.993Z,21.00
2017-06-28T05:25:43.103Z,20.90
2017-06-28T05:28:11.204Z,20.90
2017-06-28T05:30:39.346Z,20.90
2017-06-28T05:33:07.521Z,20.80
2017-06-28T05:35:35.621Z,20.90
2017-06-28T05:38:04.558Z,20.90
2017-06-28T05:40:32.702Z,20.90
2017-06-28T05:43:01.619Z,21.00
2017-06-28T05:45:29.731Z,20.90
2017-06-28T05:47:57.886Z,21.00
2017-06-28T05:50:25.997Z,21.00
2017-06-28T05:52:54.114Z,21.00
2017-06-28T05:55:22.393Z,21.10
2017-06-28T05:57:50.524Z,21.00
2017-06-28T06:09:02.473Z,21.10
2017-06-28T06:11:31.356Z,21.40
2017-06-28T06:13:59.471Z,21.40
2017-06-28T06:16:27.729Z,21.30
2017-06-28T06:18:55.854Z,21.20
2017-06-28T06:21:23.981Z,21.10
2017-06-28T06:23:52.110Z,21.10
2017-06-28T06:26:20.250Z,21.00
2017-06-28T06:28:49.265Z,21.00
2017-06-28T06:31:17.355Z,21.00
2017-06-28T06:33:45.456Z,21.10
2017-06-28T06:36:13.606Z,21.10
2017-06-28T06:38:41.749Z,21.20
2017-06-28T06:41:10.624Z,21.20
2017-06-28T06:43:38.730Z,21.20
2017-06-28T06:46:06.973Z,21.20
2017-06-28T06:48:35.110Z,21.20
2017-06-28T06:51:03.260Z,21.20
2017-06-28T06:53:31.381Z,21.20
2017-06-28T06:55:59.493Z,21.20
2017-06-28T06:58:27.665Z,21.30
2017-06-28T07:00:55.793Z,21.40
2017-06-28T07:03:23.897Z,21.30
2017-06-28T07:05:52.148Z,21.30
2017-06-28T07:08:20.258Z,21.30
2017-06-28T07:10:48.432Z,21.20
2017-06-28T07:13:16.531Z,21.20
2017-06-28T07:15:44.621Z,21.20
2017-06-28T07:18:13.519Z,21.10
2017-06-28T07:20:42.376Z,21.20
2017-06-28T07:23:10.476Z,21.20
2017-06-28T07:25:38.733Z,21.20
2017-06-28T07:28:06.832Z,21.20
2017-06-28T07:30:34.937Z,21.20
2017-06-28T07:33:03.820Z,21.20
2017-06-28T07:35:32.853Z,21.20
2017-06-28T07:38:00.987Z,21.20
2017-06-28T07:40:29.879Z,21.20
2017-06-28T07:42:58.014Z,21.20
2017-06-28T07:45:26.149Z,21.20
2017-06-28T07:47:54.250Z,21.20
2017-06-28T07:50:22.372Z,21.20
2017-06-28T07:52:50.585Z,21.10
2017-06-28T07:55:18.745Z,21.20
2017-06-28T07:57:46.829Z,21.30
2017-06-28T08:00:15.713Z,21.40
2017-06-28T08:02:43.844Z,21.40
2017-06-28T08:05:11.972Z,21.40
2017-06-28T08:07:41.011Z,21.30
2017-06-28T08:10:12.606Z,21.30
2017-06-28T08:12:47.905Z,21.20
2017-06-28T08:15:29.294Z,21.20
2017-06-28T08:18:45.833Z,21.20
2017-06-28T08:21:21.388Z,21.20
2017-06-28T08:23:52.605Z,21.20
2017-06-28T08:26:24.137Z,21.20
2017-06-28T08:28:59.749Z,21.10
2017-06-28T08:31:35.065Z,21.10
2017-06-28T08:34:03.167Z,21.10
2017-06-28T08:36:31.348Z,21.10
2017-06-28T08:38:59.451Z,21.20
2017-06-28T08:41:27.573Z,21.30
2017-06-28T08:43:55.720Z,21.30
2017-06-28T08:46:23.953Z,21.30
2017-06-28T08:48:53.324Z,21.30
2017-06-28T08:51:21.448Z,21.30
2017-06-28T08:53:49.539Z,21.40
2017-06-28T08:56:17.723Z,21.40
2017-06-28T08:58:45.829Z,21.40
2017-06-28T09:01:13.944Z,21.50
2017-06-28T09:03:42.839Z,21.60
2017-06-28T09:06:11.742Z,21.70
2017-06-28T09:08:39.888Z,21.70
2017-06-28T09:11:07.992Z,21.70
2017-06-28T09:13:36.097Z,21.70
2017-06-28T09:16:04.360Z,21.80
2017-06-28T09:18:32.464Z,21.80
2017-06-28T09:21:00.601Z,21.90
2017-06-28T09:23:28.733Z,21.90
2017-06-28T09:25:56.833Z,21.90
2017-06-28T09:28:24.992Z,21.90
2017-06-28T09:30:53.101Z,22.00
2017-06-28T09:33:21.212Z,22.10
2017-06-28T09:35:49.343Z,22.10
2017-06-28T09:38:17.476Z,22.10
2017-06-28T09:40:45.632Z,22.10
2017-06-28T09:43:13.797Z,22.10
2017-06-28T09:45:42.802Z,22.10
2017-06-28T09:48:10.898Z,22.10
2017-06-28T09:50:39.014Z,22.20
2017-06-28T09:53:07.181Z,22.30
2017-06-28T09:55:35.310Z,22.30
2017-06-28T09:58:03.425Z,22.50
2017-06-28T10:00:38.742Z,22.90
2017-06-28T10:03:06.885Z,23.20
2017-06-28T10:05:35.008Z,23.50
2017-06-28T10:08:04.757Z,23.60
2017-06-28T10:10:41.378Z,23.60
2017-06-28T10:13:09.562Z,23.60
2017-06-28T10:15:40.706Z,23.70
2017-06-28T10:18:57.127Z,23.80
2017-06-28T10:21:52.565Z,23.90
2017-06-28T10:24:21.485Z,24.00
2017-06-28T10:27:00.553Z,24.10
2017-06-28T10:29:28.794Z,24.10
2017-06-28T10:32:06.933Z,24.20
2017-06-28T10:34:35.093Z,24.10
2017-06-28T10:37:03.189Z,24.00
2017-06-28T10:39:31.281Z,24.00
2017-06-28T10:41:59.529Z,24.10
2017-06-28T10:44:27.658Z,24.10
2017-06-28T10:46:56.509Z,24.30
2017-06-28T10:49:24.648Z,24.30
2017-06-28T10:51:52.766Z,24.40
2017-06-28T10:54:33.712Z,24.50
2017-06-28T10:57:01.835Z,24.60
2017-06-28T10:59:29.937Z,24.70
2017-06-28T11:01:58.950Z,24.70
2017-06-28T11:07:49.892Z,24.80
2017-06-28T11:10:17.989Z,24.90
2017-06-28T11:12:46.124Z,24.90
2017-06-28T11:15:17.845Z,24.80
2017-06-28T11:17:49.129Z,24.80
2017-06-28T11:20:17.235Z,24.90
2017-06-28T11:22:54.333Z,25.00
2017-06-28T11:25:22.442Z,25.00
2017-06-28T11:27:50.540Z,25.20
2017-06-28T11:30:18.661Z,25.30
2017-06-28T11:32:53.867Z,25.50
2017-06-28T11:35:21.994Z,25.80
2017-06-28T11:37:50.915Z,25.90
2017-06-28T11:40:19.763Z,25.90
2017-06-28T11:42:48.013Z,25.80
2017-06-28T11:45:16.163Z,25.80
2017-06-28T11:47:44.255Z,26.00
2017-06-28T11:50:20.029Z,26.00
2017-06-28T11:52:51.636Z,26.10
2017-06-28T11:55:23.481Z,26.20
2017-06-28T11:57:54.616Z,26.40
2017-06-28T12:00:30.170Z,26.50
2017-06-28T12:03:02.112Z,26.80
2017-06-28T12:05:33.622Z,27.00
2017-06-28T12:08:09.289Z,27.10
2017-06-28T12:10:45.129Z,27.00
2017-06-28T12:13:20.938Z,27.20
2017-06-28T12:15:52.460Z,27.40
2017-06-28T12:18:27.481Z,27.60
2017-06-28T12:20:58.512Z,27.80
2017-06-28T12:23:28.672Z,27.80
2017-06-28T12:26:04.306Z,28.00
2017-06-28T12:32:00.684Z,28.00
2017-06-28T12:34:36.648Z,27.80
2017-06-28T12:37:11.648Z,27.70
2017-06-28T12:39:44.763Z,27.70
2017-06-28T12:42:20.164Z,27.50
2017-06-28T12:44:55.279Z,27.50
2017-06-28T12:47:26.689Z,27.60
2017-06-28T12:50:02.181Z,27.60
2017-06-28T12:52:33.773Z,27.70
2017-06-28T12:55:20.810Z,27.90
2017-06-28T12:57:52.040Z,27.80
2017-06-28T13:00:27.184Z,27.60
2017-06-28T13:03:10.930Z,27.60
2017-06-28T13:05:42.265Z,27.50
2017-06-28T13:08:13.831Z,27.60
2017-06-28T13:10:48.929Z,27.70
2017-06-28T13:13:20.300Z,27.60
2017-06-28T13:15:55.735Z,27.40
2017-06-28T13:18:30.861Z,27.30
2017-06-28T13:21:02.043Z,27.30
2017-06-28T13:23:55.091Z,27.20
2017-06-28T13:26:23.958Z,27.10
2017-06-28T13:28:55.563Z,27.10
2017-06-28T13:31:26.880Z,26.90
2017-06-28T13:33:54.981Z,26.80
2017-06-28T13:36:23.114Z,26.90
2017-06-28T13:38:54.671Z,27.00
2017-06-28T13:41:25.815Z,27.20
2017-06-28T13:43:54.067Z,27.40
2017-06-28T13:46:22.177Z,27.60
2017-06-28T13:48:50.326Z,27.70
2017-06-28T13:51:18.416Z,27.60
2017-06-28T13:53:46.513Z,27.40
2017-06-28T13:56:14.654Z,27.30
2017-06-28T13:58:42.757Z,27.40
2017-06-28T14:01:11.022Z,27.60
2017-06-28T14:03:39.098Z,27.70
2017-06-28T14:06:10.953Z,27.70
2017-06-28T14:08:39.049Z,27.70
2017-06-28T14:11:07.172Z,27.70
2017-06-28T14:14:06.915Z,28.00
2017-06-28T14:16:35.024Z,28.00
2017-06-28T14:19:03.281Z,28.10
2017-06-28T14:21:38.813Z,28.30
2017-06-28T14:24:06.943Z,28.40
2017-06-28T14:26:35.821Z,28.60
2017-06-28T14:29:03.941Z,28.60
2017-06-28T14:31:39.088Z,28.80
2017-06-28T14:34:10.933Z,28.90
2017-06-28T14:36:48.094Z,29.10
2017-06-28T14:39:23.828Z,29.10
2017-06-28T14:41:55.139Z,29.10
2017-06-28T14:44:23.222Z,29.10
2017-06-28T14:46:51.354Z,29.00
2017-06-28T14:49:19.484Z,29.10
2017-06-28T14:51:47.605Z,29.20
2017-06-28T14:54:15.825Z,29.10
2017-06-28T14:56:43.928Z,29.10
2017-06-28T14:59:12.052Z,29.10
2017-06-28T15:01:40.929Z,29.10
2017-06-28T15:04:09.062Z,29.10
2017-06-28T15:06:37.172Z,29.30
2017-06-28T15:09:05.424Z,29.40
2017-06-28T15:11:33.537Z,29.50
2017-06-28T15:14:01.645Z,29.60
2017-06-28T15:16:29.800Z,29.70
2017-06-28T15:18:57.877Z,29.80
2017-06-28T15:21:26.784Z,29.60
2017-06-28T15:23:55.652Z,29.40
2017-06-28T15:26:23.745Z,29.40
2017-06-28T15:28:52.790Z,29.30
2017-06-28T15:31:28.374Z,29.20
2017-06-28T15:34:04.197Z,29.30
2017-06-28T15:36:32.356Z,29.20
2017-06-28T15:39:03.756Z,29.30
2017-06-28T15:41:31.866Z,29.20
2017-06-28T15:44:00.768Z,29.40
2017-06-28T15:46:28.862Z,29.40
2017-06-28T15:48:57.103Z,29.40
2017-06-28T15:51:25.208Z,29.50
2017-06-28T15:53:56.610Z,29.40
2017-06-28T15:56:32.051Z,29.30
2017-06-28T15:59:00.148Z,29.40
2017-06-28T16:01:30.233Z,29.30
2017-06-28T16:04:01.696Z,29.30
2017-06-28T16:06:33.476Z,28.90
2017-06-28T16:09:08.537Z,28.70
2017-06-28T16:11:40.168Z,28.70
2017-06-28T16:14:11.202Z,28.60
2017-06-28T16:16:46.915Z,28.70
2017-06-28T16:19:18.275Z,28.70
2017-06-28T16:21:49.569Z,28.70
2017-06-28T16:24:24.857Z,28.70
2017-06-28T16:26:56.360Z,28.80
2017-06-28T16:29:31.471Z,28.80
2017-06-28T16:32:06.898Z,28.80
2017-06-28T16:34:42.258Z,28.90
2017-06-28T16:37:17.412Z,28.70
2017-06-28T16:39:52.608Z,28.50
2017-06-28T16:42:23.825Z,28.40
2017-06-28T16:44:55.317Z,28.30
2017-06-28T16:47:26.972Z,28.40
2017-06-28T16:49:58.670Z,28.30
2017-06-28T16:52:30.387Z,28.20
2017-06-28T16:55:02.033Z,28.20
2017-06-28T16:57:37.375Z,28.20
2017-06-28T17:00:08.580Z,28.20
2017-06-28T17:02:43.717Z,28.20
2017-06-28T17:05:19.138Z,28.10
2017-06-28T17:07:54.324Z,28.10
2017-06-28T17:10:29.478Z,28.00
2017-06-28T17:13:01.056Z,27.90
2017-06-28T17:15:32.595Z,28.10
2017-06-28T17:18:03.806Z,28.10
2017-06-28T17:20:36.728Z,28.00
2017-06-28T17:23:08.245Z,28.00
2017-06-28T17:29:05.437Z,27.90
2017-06-28T17:31:36.818Z,27.80
2017-06-28T17:34:08.727Z,27.70
2017-06-28T17:36:40.117Z,27.70
2017-06-28T17:39:16.478Z,27.70
2017-06-28T17:41:48.398Z,27.80
2017-06-28T17:44:23.615Z,27.80
2017-06-28T17:47:00.292Z,27.80
2017-06-28T17:49:32.303Z,27.80
2017-06-28T17:52:04.179Z,27.60
2017-06-28T17:54:36.095Z,27.60
2017-06-28T17:57:07.961Z,27.60
2017-06-28T17:59:43.260Z,27.50
2017-06-28T18:02:14.690Z,27.50
2017-06-28T18:04:50.842Z,27.50
2017-06-28T18:07:23.044Z,27.40
2017-06-28T18:09:57.145Z,27.40
2017-06-28T18:12:32.984Z,27.40
2017-06-28T18:15:04.209Z,27.40
2017-06-28T18:17:39.334Z,27.20
2017-06-28T18:20:15.445Z,27.10
2017-06-28T18:22:51.969Z,27.00
2017-06-28T18:25:23.425Z,26.90
2017-06-28T18:27:55.177Z,26.90
2017-06-28T18:30:30.422Z,26.90
2017-06-28T18:33:02.182Z,26.80
2017-06-28T18:35:37.426Z,26.80
2017-06-28T18:38:08.813Z,26.80
2017-06-28T18:40:40.113Z,26.60
2017-06-28T18:43:11.783Z,26.50
2017-06-28T18:45:46.864Z,26.40
2017-06-28T18:48:18.618Z,26.30
2017-06-28T18:50:50.361Z,26.40
2017-06-28T18:53:25.423Z,26.30
2017-06-28T18:55:58.743Z,26.30
2017-06-28T18:58:30.036Z,26.30
2017-06-28T19:01:05.096Z,26.30
2017-06-28T19:03:36.501Z,26.20
2017-06-28T19:06:12.425Z,26.00
2017-06-28T19:08:47.495Z,25.90
2017-06-28T19:11:18.828Z,25.80
2017-06-28T19:13:50.097Z,25.70
2017-06-28T19:16:25.257Z,25.80
2017-06-28T19:19:01.555Z,25.70
2017-06-28T19:21:32.893Z,25.70
2017-06-28T19:24:08.590Z,25.70
2017-06-28T19:26:39.913Z,25.60
2017-06-28T19:29:11.460Z,25.50
2017-06-28T19:31:46.647Z,25.50
2017-06-28T19:34:18.069Z,25.40
2017-06-28T19:36:50.133Z,25.30
2017-06-28T19:39:25.676Z,25.30
2017-06-28T19:42:04.583Z,25.20
2017-06-28T19:45:11.329Z,25.20
2017-06-28T19:47:47.324Z,25.30
2017-06-28T19:50:18.983Z,25.40
2017-06-28T19:52:54.167Z,25.40
2017-06-28T19:55:29.834Z,25.40
2017-06-28T19:58:04.953Z,25.40
2017-06-28T20:00:36.301Z,25.30
2017-06-28T20:03:11.549Z,25.30
2017-06-28T20:05:43.158Z,25.10
2017-06-28T20:08:11.271Z,25.10
2017-06-28T20:10:39.388Z,25.00
2017-06-28T20:13:07.529Z,24.80
2017-06-28T20:15:35.777Z,24.60
2017-06-28T20:18:12.401Z,24.30
2017-06-28T20:20:40.533Z,24.10
2017-06-28T20:23:12.246Z,23.80
2017-06-28T20:25:43.357Z,23.60
2017-06-28T20:28:11.496Z,23.30
2017-06-28T20:30:48.802Z,23.00
2017-06-28T20:33:20.459Z,22.90
2017-06-28T20:35:51.447Z,22.90
2017-06-28T20:38:23.016Z,22.70
2017-06-28T20:40:54.019Z,22.60
2017-06-28T20:43:29.660Z,22.50
2017-06-28T20:46:04.663Z,22.40
2017-06-28T20:48:36.129Z,22.30
2017-06-28T20:51:11.341Z,22.30
2017-06-28T20:53:43.034Z,22.40
2017-06-28T20:56:18.765Z,22.40
2017-06-28T20:58:53.947Z,22.40
2017-06-28T21:01:25.710Z,22.30
2017-06-28T21:03:56.926Z,22.10
2017-06-28T21:06:32.567Z,22.10
2017-06-28T21:09:03.878Z,22.00
2017-06-28T21:11:35.174Z,21.90
2017-06-28T21:14:11.024Z,21.80
2017-06-28T21:16:46.555Z,21.80
2017-06-28T21:19:22.514Z,21.80
2017-06-28T21:21:57.520Z,21.70
2017-06-28T21:24:29.461Z,21.60
2017-06-28T21:27:05.060Z,21.50
2017-06-28T21:29:36.417Z,21.50
2017-06-28T21:32:12.527Z,21.60
2017-06-28T21:34:43.741Z,21.60
2017-06-28T21:37:15.821Z,21.60
2017-06-28T21:39:47.519Z,21.60
2017-06-28T21:42:19.185Z,21.50
2017-06-28T21:44:54.623Z,21.50
2017-06-28T21:47:29.754Z,21.40
2017-06-28T21:50:05.362Z,21.40
2017-06-28T21:52:36.601Z,21.40
2017-06-28T21:55:11.788Z,21.30
2017-06-28T21:57:44.930Z,21.30
2017-06-28T22:00:16.868Z,21.20
2017-06-28T22:02:48.500Z,21.20
2017-06-28T22:05:24.096Z,21.20
2017-06-28T22:07:59.724Z,21.10
2017-06-28T22:10:35.355Z,21.00
2017-06-28T22:13:06.973Z,21.00
2017-06-28T22:15:38.697Z,20.90
2017-06-28T22:18:10.604Z,20.90
2017-06-28T22:20:45.958Z,20.80
2017-06-28T22:23:14.074Z,20.80
2017-06-28T22:25:45.218Z,20.70
2017-06-28T22:28:20.920Z,20.70
2017-06-28T22:30:51.972Z,20.80
2017-06-28T22:33:27.511Z,20.80
2017-06-28T22:36:02.873Z,20.80
2017-06-28T22:38:39.822Z,20.60
2017-06-28T22:41:15.425Z,20.60
2017-06-28T22:43:51.050Z,20.50
2017-06-28T22:46:20.965Z,20.40
2017-06-28T22:48:49.069Z,20.20
2017-06-28T22:51:24.548Z,20.20
2017-06-28T22:54:00.441Z,20.10
2017-06-28T22:56:32.292Z,20.20
2017-06-28T22:59:00.385Z,20.20
2017-06-28T23:01:35.740Z,20.20
2017-06-28T23:04:11.158Z,20.20
2017-06-28T23:06:46.712Z,20.30
2017-06-28T23:09:14.810Z,20.30
2017-06-28T23:11:50.161Z,20.30
2017-06-28T23:14:18.301Z,20.30
2017-06-28T23:16:46.408Z,20.30
2017-06-28T23:19:14.547Z,20.30
2017-06-28T23:21:42.648Z,20.40
2017-06-28T23:24:18.044Z,20.40
2017-06-28T23:26:49.692Z,20.40
2017-06-28T23:29:21.308Z,20.30
2017-06-28T23:31:53.245Z,20.30
2017-06-28T23:34:25.182Z,20.40
2017-06-28T23:37:00.660Z,20.30
2017-06-28T23:39:28.762Z,20.20
2017-06-28T23:41:56.889Z,20.10
2017-06-28T23:44:25.136Z,20.10
2017-06-28T23:46:53.237Z,20.10
2017-06-28T23:49:22.246Z,19.90
2017-06-28T23:51:51.137Z,19.90
2017-06-28T23:54:19.274Z,19.90
2017-06-28T23:57:02.344Z,19.80
2017-06-28T23:59:30.479Z,19.70
